Time;durP1;ratioP1;P1;durP2;ratioP2;P2;SDS_P1;SDS_P2;PMS_P1;PMS_P2;Temp;Humidity;BMP_temperature;BMP_pressure;BME280_temperature;BME280_humidity;BME280_pressure;Samples;Min_cycle;Max_cycle;Signal;HPM_P1;HPM_P2
2022/01/09 00:00:49;;;;;;;12.73;10.73;;;;;;;-5.07;93.18;100501.78;6182146;23;20021;-74
2022/01/09 00:03:16;;;;;;;17.60;11.40;;;;;;;-5.08;93.23;100500.06;6155687;23;20076;-74
2022/01/09 00:05:43;;;;;;;22.75;18.05;;;;;;;-5.10;93.00;100486.44;6181813;23;20074;-74
2022/01/09 00:08:09;;;;;;;12.77;10.13;;;;;;;-5.09;93.19;100493.25;6156176;23;20021;-73
2022/01/09 00:10:37;;;;;;;20.33;12.60;;;;;;;-5.07;93.34;100489.06;6155949;23;20020;-73
2022/01/09 00:13:03;;;;;;;13.68;10.77;;;;;;;-5.09;92.88;100493.25;6181052;23;20555;-72
2022/01/09 00:15:29;;;;;;;13.25;11.20;;;;;;;-5.10;92.91;100487.28;6131329;23;20017;-72
2022/01/09 00:17:55;;;;;;;13.93;12.02;;;;;;;-5.09;92.73;100495.78;6182057;23;20020;-75
2022/01/09 00:20:22;;;;;;;11.68;10.05;;;;;;;-5.12;92.52;100498.28;6155872;23;20024;-74
2022/01/09 00:22:50;;;;;;;15.60;10.07;;;;;;;-5.11;92.94;100487.28;6156100;23;20028;-73
2022/01/09 00:25:18;;;;;;;14.20;8.88;;;;;;;-5.13;93.13;100496.56;6182709;23;20028;-74
2022/01/09 00:27:47;;;;;;;18.70;11.95;;;;;;;-5.19;93.13;100481.19;6181630;23;20053;-74
2022/01/09 00:30:14;;;;;;;14.90;11.18;;;;;;;-5.15;92.61;100477.88;6182597;23;20044;-74
2022/01/09 00:32:40;;;;;;;11.25;9.05;;;;;;;-5.20;92.36;100475.22;6181376;23;20021;-73
2022/01/09 00:35:07;;;;;;;8.70;7.88;;;;;;;-5.20;91.43;100464.22;6182247;23;20016;-75
2022/01/09 00:37:34;;;;;;;11.98;9.00;;;;;;;-5.20;91.44;100469.31;6181970;23;20017;-74
2022/01/09 00:39:59;;;;;;;16.25;11.30;;;;;;;-5.20;91.46;100464.22;6181668;23;20024;-74
2022/01/09 00:42:25;;;;;;;9.25;8.23;;;;;;;-5.23;91.91;100459.09;6155529;23;20021;-74
2022/01/09 00:44:52;;;;;;;9.48;8.48;;;;;;;-5.34;91.93;100461.44;6181949;23;20466;-74
2022/01/09 00:47:18;;;;;;;10.02;7.60;;;;;;;-5.32;91.58;100465.69;6155868;23;20383;-74
2022/01/09 00:49:44;;;;;;;14.55;9.73;;;;;;;-5.34;91.45;100457.19;6181407;23;20476;-74
2022/01/09 00:52:10;;;;;;;10.90;9.82;;;;;;;-5.34;91.72;100462.28;6180389;23;20070;-74
2022/01/09 00:54:35;;;;;;;10.95;7.68;;;;;;;-5.33;91.19;100452.94;6181659;23;20374;-74
2022/01/09 00:57:01;;;;;;;11.68;8.88;;;;;;;-5.36;92.00;100456.28;6181773;23;20021;-75
2022/01/09 00:59:27;;;;;;;11.52;9.07;;;;;;;-5.36;91.50;100455.44;6182096;23;20027;-75
2022/01/09 01:01:53;;;;;;;15.00;9.40;;;;;;;-5.40;92.28;100451.13;6154868;23;20021;-75
2022/01/09 01:04:19;;;;;;;10.05;8.43;;;;;;;-5.44;92.11;100457.00;6182112;23;20023;-74
2022/01/09 01:06:45;;;;;;;16.23;10.52;;;;;;;-5.44;92.17;100462.94;6155075;23;20444;-74
2022/01/09 01:09:11;;;;;;;12.15;10.00;;;;;;;-5.44;91.75;100454.44;6155793;23;20378;-75
2022/01/09 01:11:40;;;;;;;10.32;9.38;;;;;;;-5.47;92.23;100447.63;6181436;23;20017;-74
2022/01/09 01:14:06;;;;;;;11.82;10.63;;;;;;;-5.50;92.10;100447.56;6181270;23;20024;-74
2022/01/09 01:16:32;;;;;;;14.63;11.13;;;;;;;-5.49;92.06;100456.91;6181787;23;20017;-75
2022/01/09 01:19:00;;;;;;;11.00;8.73;;;;;;;-5.55;92.16;100441.53;6181148;23;20032;-72
2022/01/09 01:21:26;;;;;;;16.33;12.73;;;;;;;-5.52;91.90;100441.56;6155887;23;20021;-75
2022/01/09 01:23:52;;;;;;;11.45;10.43;;;;;;;-5.53;91.96;100432.22;6154499;23;20017;-74
2022/01/09 01:26:18;;;;;;;11.60;8.23;;;;;;;-5.58;92.16;100425.34;6181620;23;20016;-75
2022/01/09 01:28:44;;;;;;;14.20;10.43;;;;;;;-5.54;92.39;100435.63;6154660;23;20020;-74
2022/01/09 01:31:11;;;;;;;10.00;6.03;;;;;;;-5.56;92.34;100428.78;6181705;23;20017;-74
2022/01/09 01:33:37;;;;;;;13.23;11.75;;;;;;;-5.54;92.43;100432.22;6155074;23;20016;-75
2022/01/09 01:36:03;;;;;;;8.02;6.40;;;;;;;-5.56;92.40;100428.78;6106688;23;20024;-73
2022/01/09 01:38:29;;;;;;;10.75;8.18;;;;;;;-5.55;92.36;100425.41;6181466;23;20024;-74
2022/01/09 01:40:57;;;;;;;10.77;9.30;;;;;;;-5.59;92.36;100413.44;6180216;23;20021;-74
2022/01/09 01:43:23;;;;;;;14.52;9.23;;;;;;;-5.57;92.22;100422.84;6181646;23;20017;-74
2022/01/09 01:45:49;;;;;;;9.07;6.82;;;;;;;-5.57;92.14;100417.75;6154192;23;20409;-76
2022/01/09 01:48:16;;;;;;;8.70;6.88;;;;;;;-5.56;92.34;100418.63;6180801;23;20021;-75
2022/01/09 01:50:42;;;;;;;13.38;9.95;;;;;;;-5.55;92.16;100405.06;6154133;23;20024;-75
2022/01/09 01:53:12;;;;;;;9.77;8.70;;;;;;;-5.56;92.13;100408.47;6180351;23;20021;-74
2022/01/09 01:55:40;;;;;;;8.50;7.05;;;;;;;-5.53;92.20;100409.34;6154648;23;20024;-75
2022/01/09 01:58:07;;;;;;;9.95;8.93;;;;;;;-5.55;92.37;100412.69;6180478;23;20021;-75
2022/01/09 02:00:33;;;;;;;10.57;8.65;;;;;;;-5.56;91.95;100406.75;6182268;23;20017;-75
2022/01/09 02:02:59;;;;;;;14.13;9.02;;;;;;;-5.58;92.35;100398.25;6197103;23;20017;-74
2022/01/09 02:05:25;;;;;;;7.03;5.72;;;;;;;-5.60;92.05;100402.47;6162375;23;20021;-75
2022/01/09 02:07:51;;;;;;;16.00;11.15;;;;;;;-5.56;92.23;100403.38;6185093;23;20025;-76
2022/01/09 02:10:17;;;;;;;10.25;7.30;;;;;;;-5.62;92.50;100388.84;6193812;23;20032;-75
2022/01/09 02:12:44;;;;;;;8.73;6.97;;;;;;;-5.61;92.32;100393.09;6197622;23;20017;-76
2022/01/09 02:15:32;;;;;;;4.93;4.57;;;;;;;-5.61;92.20;100390.56;6182857;23;20366;-75
2022/01/09 02:18:12;;;;;;;6.57;5.97;;;;;;;-5.60;91.96;100378.72;6180467;23;20096;-75
2022/01/09 02:20:39;;;;;;;6.17;5.20;;;;;;;-5.59;92.02;100373.63;6180545;23;20024;-76
2022/01/09 02:23:06;;;;;;;6.57;4.95;;;;;;;-5.52;91.86;100384.78;6154191;23;20783;-75
2022/01/09 02:25:33;;;;;;;7.93;6.65;;;;;;;-5.53;91.84;100376.28;6152419;23;20170;-74
2022/01/09 02:27:59;;;;;;;12.93;8.57;;;;;;;-5.52;91.62;100385.63;6153408;23;20024;-72
2022/01/09 02:30:25;;;;;;;5.63;5.07;;;;;;;-5.54;92.08;100379.69;6182351;23;20025;-73
2022/01/09 02:32:51;;;;;;;11.52;8.45;;;;;;;-5.50;91.45;100391.63;6182117;23;20378;-75
2022/01/09 02:35:17;;;;;;;6.63;5.93;;;;;;;-5.54;91.72;100378.81;6184510;23;20063;-72
2022/01/09 02:37:43;;;;;;;8.00;7.30;;;;;;;-5.58;91.75;100372.81;6183896;23;20013;-74
2022/01/09 02:40:09;;;;;;;11.85;7.22;;;;;;;-5.54;91.72;100394.94;6184692;23;20024;-75
2022/01/09 02:42:35;;;;;;;7.70;5.75;;;;;;;-5.58;91.89;100380.44;6157235;23;20454;-74
2022/01/09 02:45:02;;;;;;;12.32;7.45;;;;;;;-5.60;91.61;100387.19;6180870;23;20021;-74
2022/01/09 02:47:32;;;;;;;6.13;5.53;;;;;;;-5.60;91.59;100379.56;6182307;23;20020;-74
2022/01/09 02:50:07;;;;;;;6.55;5.85;;;;;;;-5.61;92.25;100360.06;6181768;23;20021;-74
2022/01/09 02:52:35;;;;;;;10.80;6.40;;;;;;;-5.57;91.28;100366.06;6158514;23;20095;-74
2022/01/09 02:55:11;;;;;;;9.75;8.07;;;;;;;-5.63;91.30;100359.19;6157062;23;20021;-75
2022/01/09 02:57:41;;;;;;;9.52;8.55;;;;;;;-5.61;91.35;100365.13;6153766;23;20450;-74
2022/01/09 03:00:09;;;;;;;6.85;6.22;;;;;;;-5.57;91.54;100372.00;6126370;23;20022;-74
2022/01/09 03:02:35;;;;;;;16.52;10.25;;;;;;;-5.58;91.29;100380.44;6152491;23;20021;-74
2022/01/09 03:05:01;;;;;;;10.68;7.20;;;;;;;-5.62;91.62;100373.59;6152520;23;20536;-74
2022/01/09 03:07:27;;;;;;;5.57;5.18;;;;;;;-5.62;91.74;100383.75;6152171;23;20017;-75
2022/01/09 03:09:53;;;;;;;10.15;6.90;;;;;;;-5.57;91.14;100377.09;6152246;23;20080;-74
2022/01/09 03:12:19;;;;;;;9.18;6.22;;;;;;;-5.51;90.40;100371.25;6152453;23;20026;-75
2022/01/09 03:14:46;;;;;;;8.05;6.80;;;;;;;-5.45;89.42;100359.50;6152338;23;20029;-74
2022/01/09 03:17:12;;;;;;;10.68;7.38;;;;;;;-5.49;89.52;100355.16;6152376;23;20109;-74
2022/01/09 03:19:38;;;;;;;9.88;6.55;;;;;;;-5.57;90.08;100346.56;6151746;23;20095;-73
2022/01/09 03:22:04;;;;;;;11.18;7.13;;;;;;;-5.57;89.85;100360.97;6152374;23;20056;-74
2022/01/09 03:24:30;;;;;;;9.90;6.70;;;;;;;-5.55;89.77;100355.06;6150678;23;20021;-75
2022/01/09 03:26:56;;;;;;;5.45;4.95;;;;;;;-5.58;89.68;100349.94;6152187;23;20378;-74
2022/01/09 03:29:22;;;;;;;8.18;7.28;;;;;;;-5.50;88.90;100358.56;6152160;23;20018;-74
2022/01/09 03:31:51;;;;;;;11.60;5.45;;;;;;;-5.48;88.64;100361.97;6152000;23;20101;-73
2022/01/09 03:34:16;;;;;;;7.57;6.07;;;;;;;-5.51;88.74;100354.31;6152086;23;20021;-74
2022/01/09 03:36:42;;;;;;;9.93;6.38;;;;;;;-5.47;88.92;100358.63;6151871;23;20025;-75
2022/01/09 03:39:08;;;;;;;6.78;6.10;;;;;;;-5.47;88.37;100360.31;6152840;23;20454;-75
2022/01/09 03:41:35;;;;;;;7.10;5.88;;;;;;;-5.51;88.18;100346.66;6151981;23;20079;-75
2022/01/09 03:44:01;;;;;;;7.25;6.50;;;;;;;-5.50;87.99;100348.41;6150563;23;20435;-74
2022/01/09 03:46:27;;;;;;;10.02;7.78;;;;;;;-5.47;87.59;100351.00;6151147;23;20021;-75
2022/01/09 03:48:53;;;;;;;7.85;5.75;;;;;;;-5.49;87.23;100347.53;6152159;23;20013;-74
2022/01/09 03:51:21;;;;;;;6.93;5.30;;;;;;;-5.45;87.53;100351.00;6152236;23;20438;-75
2022/01/09 03:53:47;;;;;;;8.15;6.03;;;;;;;-5.48;86.72;100335.69;6150025;23;20409;-74
2022/01/09 03:56:22;;;;;;;12.00;6.35;;;;;;;-5.54;86.86;100331.38;6150494;23;20021;-75
2022/01/09 03:58:48;;;;;;;6.05;5.47;;;;;;;-5.49;86.89;100329.75;6150022;23;20025;-74
2022/01/09 04:01:14;;;;;;;12.15;5.78;;;;;;;-5.48;86.27;100331.47;6152676;23;20021;-74
2022/01/09 04:03:40;;;;;;;7.65;6.03;;;;;;;-5.45;85.66;100338.28;6149931;23;20017;-75
2022/01/09 04:06:06;;;;;;;7.80;6.55;;;;;;;-5.47;85.61;100320.47;6152119;23;20014;-75
2022/01/09 04:08:34;;;;;;;7.82;6.43;;;;;;;-5.45;85.66;100328.97;6150520;23;20451;-75
2022/01/09 04:11:01;;;;;;;6.55;5.32;;;;;;;-5.42;85.83;100325.63;6152296;23;20022;-74
2022/01/09 04:13:31;;;;;;;;;;;;;;;-5.40;85.10;100324.81;6128479;23;20370;-74
2022/01/09 04:15:57;;;;;;;9.68;6.47;;;;;;;-5.39;84.13;100325.66;6153884;23;19916;-75
2022/01/09 04:18:23;;;;;;;10.18;6.93;;;;;;;-5.40;84.14;100327.34;6155266;23;20044;-75
2022/01/09 04:20:50;;;;;;;7.00;5.28;;;;;;;-5.39;83.98;100334.16;6130153;23;20534;-76
2022/01/09 04:23:16;;;;;;;4.50;4.10;;;;;;;-5.42;83.52;100336.66;6156011;23;20458;-75
2022/01/09 04:25:42;;;;;;;7.03;5.55;;;;;;;-5.38;83.01;100307.91;6156135;23;20024;-74
2022/01/09 04:28:09;;;;;;;7.40;6.15;;;;;;;-5.41;83.56;100342.59;6157815;23;20060;-74
2022/01/09 04:30:35;;;;;;;8.85;6.57;;;;;;;-5.41;83.17;100329.88;6156163;23;20017;-74
2022/01/09 04:33:01;;;;;;;12.10;6.97;;;;;;;-5.36;82.10;100339.28;6155892;23;20071;-73
2022/01/09 04:35:27;;;;;;;8.45;6.15;;;;;;;-5.35;81.81;100330.84;6156488;23;20021;-75
2022/01/09 04:37:54;;;;;;;8.80;6.72;;;;;;;-5.35;81.40;100341.00;6158158;23;20044;-74
2022/01/09 04:40:20;;;;;;;9.82;7.50;;;;;;;-5.41;81.12;100333.28;6132949;23;20028;-74
2022/01/09 04:42:58;;;;;;;7.97;6.97;;;;;;;-5.37;81.23;100347.78;6157956;23;20021;-73
2022/01/09 04:45:27;;;;;;;10.10;8.02;;;;;;;-5.40;80.68;100327.34;6154359;23;20096;-73
2022/01/09 04:47:55;;;;;;;11.52;9.43;;;;;;;-5.35;79.85;100335.94;6129543;23;20022;-73
2022/01/09 04:50:25;;;;;;;9.32;7.57;;;;;;;-5.41;80.50;100340.06;6153834;23;20029;-74
2022/01/09 04:52:54;;;;;;;12.10;5.30;;;;;;;-5.35;80.41;100337.59;6153050;23;20033;-73
2022/01/09 04:55:21;;;;;;;9.70;8.10;;;;;;;-5.37;80.03;100341.81;6155439;23;20045;-73
2022/01/09 04:57:46;;;;;;;9.82;7.28;;;;;;;-5.37;80.21;100335.06;6152034;23;20024;-72
2022/01/09 05:00:13;;;;;;;7.63;5.57;;;;;;;-5.42;80.04;100339.19;6153990;23;20022;-73
2022/01/09 05:02:39;;;;;;;8.95;6.88;;;;;;;-5.36;79.15;100326.56;6152146;23;20109;-74
2022/01/09 05:05:05;;;;;;;9.05;8.10;;;;;;;-5.28;78.22;100335.19;6154137;23;20022;-73
2022/01/09 05:07:31;;;;;;;9.57;8.18;;;;;;;-5.33;78.95;100330.84;6152297;23;20048;-72
2022/01/09 05:09:57;;;;;;;6.90;6.15;;;;;;;-5.32;78.10;100324.94;6153118;23;20017;-72
2022/01/09 05:12:23;;;;;;;9.00;8.07;;;;;;;-5.29;77.81;100323.31;6153595;23;20354;-73
2022/01/09 05:14:49;;;;;;;6.40;5.80;;;;;;;-5.37;77.87;100329.09;6152410;23;20021;-72
2022/01/09 05:17:17;;;;;;;8.60;7.53;;;;;;;-5.32;77.80;100328.34;6151780;23;20485;-74
2022/01/09 05:19:46;;;;;;;10.70;7.03;;;;;;;-5.33;77.04;100326.63;6126670;23;20017;-72
2022/01/09 05:22:12;;;;;;;8.55;6.32;;;;;;;-5.32;77.08;100328.34;6151305;23;20049;-72
2022/01/09 05:24:38;;;;;;;7.10;5.63;;;;;;;-5.32;77.02;100310.53;6152694;23;20017;-73
2022/01/09 05:27:04;;;;;;;8.13;7.32;;;;;;;-5.31;76.72;100330.06;6153133;23;20044;-72
2022/01/09 05:29:30;;;;;;;7.85;6.10;;;;;;;-5.38;76.53;100323.16;6152755;23;20362;-72
2022/01/09 05:31:56;;;;;;;5.10;4.70;;;;;;;-5.34;76.97;100330.00;6150835;23;20060;-71
2022/01/09 05:34:22;;;;;;;6.68;6.00;;;;;;;-5.32;75.83;100302.91;6126740;23;20124;-72
2022/01/09 05:36:48;;;;;;;7.03;6.43;;;;;;;-5.36;76.27;100325.72;6150846;23;20025;-72
2022/01/09 05:39:14;;;;;;;9.43;6.72;;;;;;;-5.32;75.64;100324.94;6152064;23;20477;-72
2022/01/09 05:41:44;;;;;;;5.85;5.35;;;;;;;-5.32;76.07;100319.84;6151609;23;20048;-73
2022/01/09 05:44:10;;;;;;;19.27;8.73;;;;;;;-5.30;74.88;100319.03;6152274;23;20022;-71
2022/01/09 05:46:39;;;;;;;7.88;6.13;;;;;;;-5.50;74.74;100284.81;6152946;23;20052;-72
2022/01/09 05:49:05;;;;;;;9.02;7.00;;;;;;;-5.31;75.09;100334.28;6151042;23;20041;-72
2022/01/09 05:51:31;;;;;;;13.18;9.55;;;;;;;-5.33;74.21;100324.06;6151412;23;20414;-73
2022/01/09 05:53:57;;;;;;;7.35;6.65;;;;;;;-5.36;74.64;100329.13;6152812;23;20013;-73
2022/01/09 05:56:23;;;;;;;12.05;9.23;;;;;;;-5.38;74.73;100338.41;6148129;23;20335;-74
2022/01/09 05:58:49;;;;;;;8.20;7.05;;;;;;;-5.39;74.66;100336.69;6174452;23;20096;-74
2022/01/09 06:01:15;;;;;;;7.05;6.35;;;;;;;-5.39;74.36;100343.47;6181524;23;20017;-73
2022/01/09 06:03:40;;;;;;;11.70;7.25;;;;;;;-5.37;74.02;100340.16;6129276;23;20469;-74
2022/01/09 06:06:09;;;;;;;10.43;9.10;;;;;;;-5.36;74.48;100352.00;6180427;23;20021;-74
2022/01/09 06:08:35;;;;;;;8.98;6.03;;;;;;;-5.37;73.44;100327.44;6130745;23;20048;-74
2022/01/09 06:11:01;;;;;;;7.30;6.60;;;;;;;-5.31;73.25;100332.59;6108110;23;20029;-75
2022/01/09 06:13:27;;;;;;;11.15;9.43;;;;;;;-5.33;73.35;100326.63;6131896;23;20053;-74
2022/01/09 06:15:53;;;;;;;9.88;6.28;;;;;;;-5.28;73.19;100345.38;6153704;23;20021;-75
2022/01/09 06:18:22;;;;;;;11.23;8.20;;;;;;;-5.24;73.33;100345.41;6104811;23;20024;-73
2022/01/09 06:20:48;;;;;;;10.40;9.40;;;;;;;-5.23;72.83;100336.97;6179866;23;20280;-73
2022/01/09 06:23:16;;;;;;;7.97;7.20;;;;;;;-5.20;72.57;100331.94;6154309;23;20100;-75
2022/01/09 06:25:43;;;;;;;7.88;6.35;;;;;;;-5.22;72.55;100342.06;6154260;23;20009;-75
2022/01/09 06:28:09;;;;;;;9.02;6.97;;;;;;;-5.12;72.22;100345.59;6132921;23;20016;-75
2022/01/09 06:30:35;;;;;;;8.25;7.40;;;;;;;-5.11;71.55;100343.09;6179583;23;20473;-75
2022/01/09 06:33:01;;;;;;;7.85;7.15;;;;;;;-5.09;71.88;100340.56;6153469;23;20049;-74
2022/01/09 06:35:30;;;;;;;7.25;6.38;;;;;;;-5.06;72.13;100345.69;6179762;23;20027;-74
2022/01/09 06:37:56;;;;;;;7.78;7.07;;;;;;;-5.07;71.57;100336.38;6129182;23;20976;-75
2022/01/09 06:40:22;;;;;;;10.73;6.25;;;;;;;-4.99;71.90;100342.41;6180229;23;20400;-75
2022/01/09 06:42:48;;;;;;;9.20;8.18;;;;;;;-5.06;71.90;100344.00;6179595;23;20099;-75
2022/01/09 06:45:14;;;;;;;10.25;6.80;;;;;;;-5.01;71.94;100351.72;6131882;23;20044;-74
2022/01/09 06:47:40;;;;;;;9.18;6.95;;;;;;;-5.00;71.69;100335.59;6181148;23;20016;-74
2022/01/09 06:50:06;;;;;;;10.88;8.05;;;;;;;-4.96;71.37;100332.28;6153659;23;20314;-75
2022/01/09 06:52:33;;;;;;;8.73;6.93;;;;;;;-4.97;71.58;100326.34;6153923;23;20450;-76
2022/01/09 06:55:01;;;;;;;10.18;8.15;;;;;;;-4.90;71.11;100345.09;6153334;23;20104;-75
2022/01/09 06:57:29;;;;;;;10.88;8.50;;;;;;;-4.90;70.37;100343.41;6148584;23;20028;-75
2022/01/09 06:59:55;;;;;;;10.40;9.25;;;;;;;-4.94;71.24;100349.28;6147789;23;20113;-75
2022/01/09 07:02:21;;;;;;;8.18;6.45;;;;;;;-4.98;71.01;100337.38;6148257;23;20151;-74
2022/01/09 07:04:47;;;;;;;8.63;7.75;;;;;;;-4.99;70.64;100342.41;6150225;23;20020;-77
2022/01/09 07:07:13;;;;;;;6.82;6.22;;;;;;;-4.94;70.62;100346.75;6149952;23;20097;-75
2022/01/09 07:09:39;;;;;;;6.57;5.97;;;;;;;-4.87;70.41;100337.50;6148783;23;20064;-74
2022/01/09 07:12:07;;;;;;;6.40;4.78;;;;;;;-4.93;69.97;100323.00;6149347;23;20017;-74
2022/01/09 07:14:33;;;;;;;9.63;6.90;;;;;;;-4.88;70.12;100333.28;6147435;23;20021;-73
2022/01/09 07:17:00;;;;;;;9.02;5.55;;;;;;;-4.85;69.77;100328.22;6124599;23;20362;-73
2022/01/09 07:19:26;;;;;;;7.05;5.07;;;;;;;-4.83;69.75;100334.19;6150198;23;20018;-73
2022/01/09 07:21:52;;;;;;;6.70;6.00;;;;;;;-4.82;69.98;100328.25;6149688;23;20485;-73
2022/01/09 07:24:18;;;;;;;6.95;6.28;;;;;;;-4.79;69.74;100330.84;6151269;23;20021;-72
2022/01/09 07:26:44;;;;;;;4.95;4.55;;;;;;;-4.80;69.62;100331.66;6149805;23;20109;-74
2022/01/09 07:29:09;;;;;;;7.90;7.13;;;;;;;-4.90;69.94;100319.66;6148532;23;20013;-74
2022/01/09 07:31:36;;;;;;;6.25;5.35;;;;;;;-4.85;70.03;100321.44;6124832;23;20013;-74
2022/01/09 07:34:03;;;;;;;5.85;5.10;;;;;;;-4.83;69.93;100339.28;6150052;23;20017;-74
2022/01/09 07:36:29;;;;;;;8.82;7.25;;;;;;;-4.79;69.61;100325.75;6125827;23;20024;-74
2022/01/09 07:38:55;;;;;;;7.65;6.43;;;;;;;-4.79;69.71;100330.84;6124755;23;20017;-74
2022/01/09 07:41:21;;;;;;;5.85;5.15;;;;;;;-4.77;70.04;100326.63;6151662;23;20022;-74
2022/01/09 07:43:47;;;;;;;7.57;6.55;;;;;;;-4.76;70.03;100323.25;6124989;23;20017;-73
2022/01/09 07:46:13;;;;;;;7.28;6.60;;;;;;;-4.78;70.17;100328.31;6125176;23;20017;-74
2022/01/09 07:48:39;;;;;;;6.93;5.88;;;;;;;-4.76;69.88;100330.88;6125110;23;20343;-73
2022/01/09 07:51:05;;;;;;;8.63;7.28;;;;;;;-4.82;69.69;100321.47;6151421;23;20427;-74
2022/01/09 07:53:31;;;;;;;7.40;6.70;;;;;;;-4.80;69.70;100308.75;6125323;23;20414;-74
2022/01/09 07:55:57;;;;;;;7.07;6.47;;;;;;;-4.76;70.40;100325.78;6150070;23;20048;-73
2022/01/09 07:58:23;;;;;;;7.80;6.47;;;;;;;-4.77;70.11;100329.16;6168479;23;20021;-73
2022/01/09 08:00:49;;;;;;;7.78;5.97;;;;;;;-4.84;69.94;100328.22;6153850;23;20023;-73
2022/01/09 08:03:15;;;;;;;7.82;5.80;;;;;;;-4.69;70.19;100332.69;6154629;23;20028;-72
2022/01/09 08:05:41;;;;;;;12.90;7.53;;;;;;;-4.71;70.12;100336.06;6179325;23;20017;-73
2022/01/09 08:08:09;;;;;;;8.40;7.60;;;;;;;-4.68;70.10;100344.59;6105861;23;20028;-73
2022/01/09 08:10:35;;;;;;;8.80;6.72;;;;;;;-4.68;70.15;100349.69;6154141;23;20466;-73
2022/01/09 08:13:02;;;;;;;6.55;4.35;;;;;;;-4.73;70.07;100343.66;6180406;23;20021;-72
2022/01/09 08:15:29;;;;;;;6.38;5.78;;;;;;;-4.61;69.08;100326.00;6154276;23;20373;-73
2022/01/09 08:17:55;;;;;;;7.38;6.22;;;;;;;-4.60;69.91;100331.94;6180334;23;20013;-72
2022/01/09 08:20:21;;;;;;;6.93;6.03;;;;;;;-4.54;69.10;100330.34;6154506;23;20037;-73
2022/01/09 08:22:47;;;;;;;6.35;5.20;;;;;;;-4.44;68.85;100324.53;6180049;23;20017;-74
2022/01/09 08:25:18;;;;;;;8.73;5.97;;;;;;;-4.40;68.47;100326.28;6180695;23;20048;-75
2022/01/09 08:27:44;;;;;;;;;;;;;;;-4.44;67.94;100321.97;6154690;23;20100;-75
2022/01/09 08:30:11;;;;;;;7.70;5.25;;;;;;;-4.45;68.22;100317.72;6130433;23;19942;-74
2022/01/09 08:32:37;;;;;;;7.68;5.20;;;;;;;-4.46;67.74;100317.72;6157244;23;20021;-75
2022/01/09 08:35:04;;;;;;;5.82;5.32;;;;;;;-4.43;68.46;100310.97;6182847;23;20025;-75
2022/01/09 08:37:30;;;;;;;11.23;8.85;;;;;;;-4.44;68.67;100331.31;6131783;23;20051;-74
2022/01/09 08:39:56;;;;;;;9.32;7.25;;;;;;;-4.58;68.66;100318.41;6180784;23;20128;-74
2022/01/09 08:42:24;;;;;;;9.10;8.27;;;;;;;-4.67;69.10;100312.31;6154350;23;20025;-73
2022/01/09 08:44:50;;;;;;;5.30;4.80;;;;;;;-4.67;68.75;100315.72;6130386;23;20017;-73
2022/01/09 08:47:16;;;;;;;6.93;6.25;;;;;;;-4.63;68.91;100301.34;6154689;23;20044;-75
2022/01/09 08:49:42;;;;;;;8.02;7.00;;;;;;;-4.72;69.30;100322.47;6180387;23;20416;-73
2022/01/09 08:52:09;;;;;;;5.50;4.63;;;;;;;-4.77;68.88;100309.66;6154177;23;20020;-72
2022/01/09 08:54:35;;;;;;;5.53;5.03;;;;;;;-4.73;69.18;100320.75;6180823;23;20017;-74
2022/01/09 08:57:05;;;;;;;7.72;6.75;;;;;;;-4.65;68.85;100324.25;6180108;23;20031;-74
2022/01/09 08:59:31;;;;;;;5.22;4.72;;;;;;;-4.67;68.76;100317.41;6180869;23;20125;-73
2022/01/09 09:01:59;;;;;;;5.90;4.90;;;;;;;-4.65;68.72;100311.53;6154269;23;20048;-71
2022/01/09 09:04:25;;;;;;;5.30;4.38;;;;;;;-4.68;69.15;100325.91;6180622;23;20099;-72
2022/01/09 09:06:52;;;;;;;6.25;5.65;;;;;;;-4.75;68.63;100302.91;6180043;23;20020;-72
2022/01/09 09:09:18;;;;;;;8.07;6.07;;;;;;;-4.71;68.92;100308.88;6154432;23;20028;-72
2022/01/09 09:11:44;;;;;;;5.70;4.63;;;;;;;-4.72;69.23;100317.38;6180970;23;20091;-73
2022/01/09 09:14:10;;;;;;;9.40;6.78;;;;;;;-4.66;69.30;100314.91;6152440;23;20110;-72
2022/01/09 09:16:36;;;;;;;6.82;6.20;;;;;;;-4.67;69.27;100315.72;6155460;23;20021;-73
2022/01/09 09:19:02;;;;;;;6.43;5.00;;;;;;;-4.69;69.34;100303.81;6156880;23;20017;-72
2022/01/09 09:21:27;;;;;;;6.85;5.65;;;;;;;-4.78;68.84;100312.19;6185523;23;20071;-72
2022/01/09 09:23:53;;;;;;;7.65;5.47;;;;;;;-4.79;69.04;100295.19;6185067;23;20051;-71
2022/01/09 09:26:21;;;;;;;6.78;4.70;;;;;;;-4.77;68.54;100309.66;6187140;23;20553;-72
2022/01/09 09:28:47;;;;;;;7.78;4.20;;;;;;;-4.80;68.57;100312.16;6186495;23;20025;-72
2022/01/09 09:31:13;;;;;;;6.47;5.18;;;;;;;-4.72;68.85;100308.88;6182630;23;20105;-72
2022/01/09 09:33:39;;;;;;;6.68;5.97;;;;;;;-4.67;67.91;100295.34;6180132;23;20017;-72
2022/01/09 09:36:05;;;;;;;5.93;5.38;;;;;;;-4.58;68.03;100304.84;6180105;23;20068;-72
2022/01/09 09:38:31;;;;;;;6.35;5.70;;;;;;;-4.65;67.39;100306.44;6180560;23;20027;-72
2022/01/09 09:40:59;;;;;;;3.20;3.00;;;;;;;-4.69;67.69;100302.13;6179785;23;20079;-72
2022/01/09 09:43:25;;;;;;;7.40;4.85;;;;;;;-4.62;67.64;100316.66;6154124;23;20016;-74
2022/01/09 09:45:52;;;;;;;6.28;5.22;;;;;;;-4.69;66.85;100304.69;6129198;23;20021;-75
2022/01/09 09:48:20;;;;;;;4.78;4.38;;;;;;;-4.61;66.69;100300.53;6154091;23;20043;-74
2022/01/09 09:50:47;;;;;;;8.98;7.10;;;;;;;-4.63;67.39;100292.03;6153385;23;20020;-72
2022/01/09 09:53:13;;;;;;;7.88;4.70;;;;;;;-4.65;67.31;100303.03;6153869;23;20017;-73
2022/01/09 09:55:40;;;;;;;4.47;4.07;;;;;;;-4.72;67.25;100297.00;6153533;23;20024;-72
2022/01/09 09:58:06;;;;;;;7.60;5.75;;;;;;;-4.68;67.28;100297.91;6105058;23;20358;-72
2022/01/09 10:00:33;;;;;;;8.38;6.65;;;;;;;-4.72;66.63;100291.06;6180525;23;20021;-73
2022/01/09 10:03:00;;;;;;;6.75;5.85;;;;;;;-4.63;67.16;100292.03;6153046;23;20039;-72
2022/01/09 10:05:28;;;;;;;5.53;4.18;;;;;;;-4.58;66.27;100294.66;6180076;23;20017;-72
2022/01/09 10:07:55;;;;;;;6.70;5.97;;;;;;;-4.55;67.11;100289.59;6127744;23;20017;-72
2022/01/09 10:10:32;;;;;;;6.65;5.95;;;;;;;-4.64;65.94;100285.22;6153157;23;20488;-72
2022/01/09 10:13:05;;;;;;;5.10;4.63;;;;;;;-4.62;66.59;100283.56;6179639;23;20025;-74
2022/01/09 10:15:41;;;;;;;7.13;5.53;;;;;;;-4.62;66.32;100287.78;6152748;23;20091;-73
2022/01/09 10:18:08;;;;;;;9.32;3.97;;;;;;;-4.66;66.33;100288.59;6130992;23;20410;-73
2022/01/09 10:20:34;;;;;;;5.15;4.25;;;;;;;-4.63;65.83;100286.94;6153728;23;20021;-73
2022/01/09 10:22:59;;;;;;;4.65;4.25;;;;;;;-4.66;65.93;100279.25;6180031;23;20274;-73
2022/01/09 10:25:32;;;;;;;5.63;4.55;;;;;;;-4.53;66.16;100282.81;6179439;23;20049;-74
2022/01/09 10:28:08;;;;;;;4.40;4.00;;;;;;;-4.60;65.72;100271.69;6153624;23;20075;-73
2022/01/09 10:30:39;;;;;;;4.82;4.43;;;;;;;-4.61;65.80;100282.69;6129385;23;20496;-74
2022/01/09 10:33:10;;;;;;;4.72;4.32;;;;;;;-4.60;65.04;100269.13;6180207;23;20021;-74
2022/01/09 10:35:37;;;;;;;5.05;4.05;;;;;;;-4.52;65.51;100272.66;6153914;23;20021;-72
2022/01/09 10:38:16;;;;;;;4.25;3.80;;;;;;;-4.50;65.04;100276.06;6105190;23;20027;-72
2022/01/09 10:41:32;;;;;;;22.77;4.95;;;;;;;-4.43;65.11;100275.31;6155366;23;20095;-72
2022/01/09 10:44:01;;;;;;;5.68;4.82;;;;;;;-4.41;64.50;100273.63;6179941;23;20040;-73
2022/01/09 10:46:28;;;;;;;3.97;3.55;;;;;;;-4.52;66.45;100275.19;6153911;23;20374;-73
2022/01/09 10:48:56;;;;;;;4.78;4.43;;;;;;;-4.55;67.03;100267.53;6154133;23;20096;-73
2022/01/09 10:51:24;;;;;;;5.50;5.00;;;;;;;-4.55;67.63;100270.06;6132245;23;20079;-73
2022/01/09 10:53:50;;;;;;;4.47;4.07;;;;;;;-4.60;67.78;100271.69;6181223;23;20066;-75
2022/01/09 10:56:24;;;;;;;4.68;4.28;;;;;;;-4.57;67.79;100279.38;6131422;23;20481;-75
2022/01/09 10:58:54;;;;;;;5.32;4.70;;;;;;;-4.64;67.72;100280.13;6181598;23;20057;-74
2022/01/09 11:01:39;;;;;;;4.40;3.85;;;;;;;-4.68;66.86;100263.13;6131636;23;20100;-74
2022/01/09 11:04:07;;;;;;;5.45;4.95;;;;;;;-4.75;67.84;100263.88;6181492;23;20028;-75
2022/01/09 11:06:34;;;;;;;6.15;4.75;;;;;;;-4.71;67.21;100273.22;6130694;23;20078;-74
2022/01/09 11:09:02;;;;;;;6.20;5.60;;;;;;;-4.87;67.84;100261.13;6180964;23;20021;-73
2022/01/09 11:13:57;;;;;;;3.85;3.42;;;;;;;-4.83;68.59;100257.81;6180959;23;20013;-73
2022/01/09 11:16:34;;;;;;;5.60;5.07;;;;;;;-4.82;67.78;100250.19;6155564;23;20021;-74
2022/01/09 11:19:05;;;;;;;9.27;5.50;;;;;;;-4.95;67.93;100248.34;6158459;23;20017;-74
2022/01/09 11:21:32;;;;;;;4.88;4.45;;;;;;;-4.91;68.57;100242.41;6158646;23;20025;-74
2022/01/09 11:24:31;;;;;;;5.45;5.05;;;;;;;-4.95;68.40;100239.84;6181482;23;20559;-73